sensor_id;sensor_type;location;lat;lon;timestamp;temperature;humidity
7934;DHT22;4012;48.896;9.192;2023-03-03T00:01:14;3.60;99.90
7934;DHT22;4012;48.896;9.192;2023-03-03T00:03:40;3.60;99.90
7934;DHT22;4012;48.896;9.192;2023-03-03T00:06:09;3.60;99.90
7934;DHT22;4012;48.896;9.192;2023-03-03T00:08:35;3.50;99.90
7934;DHT22;4012;48.896;9.192;2023-03-03T00:11:01;3.50;99.90
7934;DHT22;4012;48.896;9.192;2023-03-03T00:13:30;3.50;99.90
7934;DHT22;4012;48.896;9.192;2023-03-03T00:16:15;3.50;99.90
7934;DHT22;4012;48.896;9.192;2023-03-03T00:18:46;3.50;99.90
7934;DHT22;4012;48.896;9.192;2023-03-03T00:21:32;3.50;99.90
7934;DHT22;4012;48.896;9.192;2023-03-03T00:26:40;3.40;99.90
7934;DHT22;4012;48.896;9.192;2023-03-03T00:29:36;3.40;99.90
7934;DHT22;4012;48.896;9.192;2023-03-03T00:34:42;3.30;99.90
7934;DHT22;4012;48.896;9.192;2023-03-03T00:37:41;3.30;99.90
7934;DHT22;4012;48.896;9.192;2023-03-03T00:40:29;3.30;99.90
7934;DHT22;4012;48.896;9.192;2023-03-03T00:42:57;3.20;99.90
7934;DHT22;4012;48.896;9.192;2023-03-03T00:45:34;3.20;99.90
7934;DHT22;4012;48.896;9.192;2023-03-03T00:51:01;3.20;99.90
7934;DHT22;4012;48.896;9.192;2023-03-03T00:53:30;3.20;99.90
7934;DHT22;4012;48.896;9.192;2023-03-03T00:55:57;3.20;99.90
7934;DHT22;4012;48.896;9.192;2023-03-03T00:58:24;3.20;99.90
7934;DHT22;4012;48.896;9.192;2023-03-03T01:00:51;3.10;99.90
7934;DHT22;4012;48.896;9.192;2023-03-03T01:03:22;3.10;99.90
7934;DHT22;4012;48.896;9.192;2023-03-03T01:05:49;3.10;99.90
7934;DHT22;4012;48.896;9.192;2023-03-03T01:08:15;3.10;99.90
7934;DHT22;4012;48.896;9.192;2023-03-03T01:10:45;3.00;99.90
7934;DHT22;4012;48.896;9.192;2023-03-03T01:13:13;3.00;99.90
7934;DHT22;4012;48.896;9.192;2023-03-03T01:15:39;3.00;99.90
7934;DHT22;4012;48.896;9.192;2023-03-03T01:18:06;3.00;99.90
7934;DHT22;4012;48.896;9.192;2023-03-03T01:20:31;3.00;99.90
7934;DHT22;4012;48.896;9.192;2023-03-03T01:22:57;3.00;99.90
7934;DHT22;4012;48.896;9.192;2023-03-03T01:25:23;3.00;99.90
7934;DHT22;4012;48.896;9.192;2023-03-03T01:27:48;2.90;99.90
7934;DHT22;4012;48.896;9.192;2023-03-03T01:30:14;2.90;99.90
7934;DHT22;4012;48.896;9.192;2023-03-03T01:32:40;2.90;99.90
7934;DHT22;4012;48.896;9.192;2023-03-03T01:35:06;2.90;99.90
7934;DHT22;4012;48.896;9.192;2023-03-03T01:37:33;2.80;99.90
7934;DHT22;4012;48.896;9.192;2023-03-03T01:39:59;2.90;99.90
7934;DHT22;4012;48.896;9.192;2023-03-03T01:42:25;2.80;99.90
7934;DHT22;4012;48.896;9.192;2023-03-03T01:47:50;2.80;99.90
7934;DHT22;4012;48.896;9.192;2023-03-03T01:50:29;2.80;99.90
7934;DHT22;4012;48.896;9.192;2023-03-03T01:52:58;2.80;99.90
7934;DHT22;4012;48.896;9.192;2023-03-03T01:55:29;2.80;99.90
7934;DHT22;4012;48.896;9.192;2023-03-03T01:58:09;2.70;99.90
7934;DHT22;4012;48.896;9.192;2023-03-03T02:00:37;2.70;99.90
7934;DHT22;4012;48.896;9.192;2023-03-03T02:03:04;2.60;99.90
7934;DHT22;4012;48.896;9.192;2023-03-03T02:05:30;2.60;99.90
7934;DHT22;4012;48.896;9.192;2023-03-03T02:07:56;2.60;99.90
7934;DHT22;4012;48.896;9.192;2023-03-03T02:10:21;2.60;99.90
7934;DHT22;4012;48.896;9.192;2023-03-03T02:12:50;2.60;99.90
7934;DHT22;4012;48.896;9.192;2023-03-03T02:15:26;2.50;99.90
7934;DHT22;4012;48.896;9.192;2023-03-03T02:17:55;2.60;99.90
7934;DHT22;4012;48.896;9.192;2023-03-03T02:20:57;2.60;99.90
7934;DHT22;4012;48.896;9.192;2023-03-03T02:26:28;2.50;99.90
7934;DHT22;4012;48.896;9.192;2023-03-03T02:28:52;2.50;99.90
7934;DHT22;4012;48.896;9.192;2023-03-03T02:31:21;2.50;99.90
7934;DHT22;4012;48.896;9.192;2023-03-03T02:33:50;2.50;99.90
7934;DHT22;4012;48.896;9.192;2023-03-03T02:36:22;2.40;99.90
7934;DHT22;4012;48.896;9.192;2023-03-03T02:44:17;2.40;99.90
7934;DHT22;4012;48.896;9.192;2023-03-03T02:46:45;2.50;99.90
7934;DHT22;4012;48.896;9.192;2023-03-03T02:49:14;2.40;99.90
7934;DHT22;4012;48.896;9.192;2023-03-03T02:51:40;2.40;99.90
7934;DHT22;4012;48.896;9.192;2023-03-03T02:54:07;2.40;99.90
7934;DHT22;4012;48.896;9.192;2023-03-03T02:56:34;2.50;99.90
7934;DHT22;4012;48.896;9.192;2023-03-03T02:58:59;2.40;99.90
7934;DHT22;4012;48.896;9.192;2023-03-03T03:01:25;2.40;99.90
7934;DHT22;4012;48.896;9.192;2023-03-03T03:03:51;2.40;99.90
7934;DHT22;4012;48.896;9.192;2023-03-03T03:06:16;2.30;99.90
7934;DHT22;4012;48.896;9.192;2023-03-03T03:08:42;2.30;99.90
7934;DHT22;4012;48.896;9.192;2023-03-03T03:11:07;2.20;99.90
7934;DHT22;4012;48.896;9.192;2023-03-03T03:13:33;2.20;99.90
7934;DHT22;4012;48.896;9.192;2023-03-03T03:16:00;2.20;99.90
7934;DHT22;4012;48.896;9.192;2023-03-03T03:18:26;2.30;99.90
7934;DHT22;4012;48.896;9.192;2023-03-03T03:20:52;2.30;99.90
7934;DHT22;4012;48.896;9.192;2023-03-03T03:23:18;2.20;99.90
7934;DHT22;4012;48.896;9.192;2023-03-03T03:25:46;2.20;99.90
7934;DHT22;4012;48.896;9.192;2023-03-03T03:28:16;2.20;99.90
7934;DHT22;4012;48.896;9.192;2023-03-03T03:30:42;2.20;99.90
7934;DHT22;4012;48.896;9.192;2023-03-03T03:33:11;2.20;99.90
7934;DHT22;4012;48.896;9.192;2023-03-03T03:35:37;2.10;99.90
7934;DHT22;4012;48.896;9.192;2023-03-03T03:38:04;2.10;99.90
7934;DHT22;4012;48.896;9.192;2023-03-03T03:40:30;2.00;99.90
7934;DHT22;4012;48.896;9.192;2023-03-03T03:42:56;2.00;99.90
7934;DHT22;4012;48.896;9.192;2023-03-03T03:45:21;2.00;99.90
7934;DHT22;4012;48.896;9.192;2023-03-03T03:47:47;1.90;99.90
7934;DHT22;4012;48.896;9.192;2023-03-03T03:50:13;2.00;99.90
7934;DHT22;4012;48.896;9.192;2023-03-03T03:52:39;2.00;99.90
7934;DHT22;4012;48.896;9.192;2023-03-03T03:55:05;1.90;99.90
7934;DHT22;4012;48.896;9.192;2023-03-03T03:57:30;1.90;99.90
7934;DHT22;4012;48.896;9.192;2023-03-03T03:59:56;1.90;99.90
7934;DHT22;4012;48.896;9.192;2023-03-03T04:02:22;1.90;99.90
7934;DHT22;4012;48.896;9.192;2023-03-03T04:04:47;1.90;99.90
7934;DHT22;4012;48.896;9.192;2023-03-03T04:07:13;1.90;99.90
7934;DHT22;4012;48.896;9.192;2023-03-03T04:09:38;1.80;99.90
7934;DHT22;4012;48.896;9.192;2023-03-03T04:12:04;1.80;99.90
7934;DHT22;4012;48.896;9.192;2023-03-03T04:14:30;1.90;99.90
7934;DHT22;4012;48.896;9.192;2023-03-03T04:16:56;1.90;99.90
7934;DHT22;4012;48.896;9.192;2023-03-03T04:19:21;1.90;99.90
7934;DHT22;4012;48.896;9.192;2023-03-03T04:21:48;1.90;99.90
7934;DHT22;4012;48.896;9.192;2023-03-03T04:24:13;1.90;99.90
7934;DHT22;4012;48.896;9.192;2023-03-03T04:26:39;1.90;99.90
7934;DHT22;4012;48.896;9.192;2023-03-03T04:29:05;1.90;99.90
7934;DHT22;4012;48.896;9.192;2023-03-03T04:31:31;1.90;99.90
7934;DHT22;4012;48.896;9.192;2023-03-03T04:33:56;1.90;99.90
7934;DHT22;4012;48.896;9.192;2023-03-03T04:36:22;2.10;99.90
7934;DHT22;4012;48.896;9.192;2023-03-03T04:38:48;2.10;99.90
7934;DHT22;4012;48.896;9.192;2023-03-03T04:41:14;2.10;99.90
7934;DHT22;4012;48.896;9.192;2023-03-03T04:43:40;2.00;99.90
7934;DHT22;4012;48.896;9.192;2023-03-03T04:46:06;2.00;99.90
7934;DHT22;4012;48.896;9.192;2023-03-03T04:48:32;2.00;99.90
7934;DHT22;4012;48.896;9.192;2023-03-03T04:50:57;2.00;99.90
7934;DHT22;4012;48.896;9.192;2023-03-03T04:53:23;2.00;99.90
7934;DHT22;4012;48.896;9.192;2023-03-03T04:55:50;1.90;99.90
7934;DHT22;4012;48.896;9.192;2023-03-03T04:58:16;1.90;99.90
7934;DHT22;4012;48.896;9.192;2023-03-03T05:00:44;1.90;99.90
7934;DHT22;4012;48.896;9.192;2023-03-03T05:03:11;1.90;99.90
7934;DHT22;4012;48.896;9.192;2023-03-03T05:05:37;1.90;99.90
7934;DHT22;4012;48.896;9.192;2023-03-03T05:08:03;1.90;99.90
7934;DHT22;4012;48.896;9.192;2023-03-03T05:10:28;1.90;99.90
7934;DHT22;4012;48.896;9.192;2023-03-03T05:12:54;1.90;99.90
7934;DHT22;4012;48.896;9.192;2023-03-03T05:15:20;2.00;99.90
7934;DHT22;4012;48.896;9.192;2023-03-03T05:17:46;2.00;99.90
7934;DHT22;4012;48.896;9.192;2023-03-03T05:20:12;2.10;99.90
7934;DHT22;4012;48.896;9.192;2023-03-03T05:22:37;2.20;99.90
7934;DHT22;4012;48.896;9.192;2023-03-03T05:25:04;2.10;99.90
7934;DHT22;4012;48.896;9.192;2023-03-03T05:27:29;2.10;99.90
7934;DHT22;4012;48.896;9.192;2023-03-03T05:29:55;2.10;99.90
7934;DHT22;4012;48.896;9.192;2023-03-03T05:32:21;2.10;99.90
7934;DHT22;4012;48.896;9.192;2023-03-03T05:34:46;2.10;99.90
7934;DHT22;4012;48.896;9.192;2023-03-03T05:37:12;2.10;99.90
7934;DHT22;4012;48.896;9.192;2023-03-03T05:39:38;2.20;99.90
7934;DHT22;4012;48.896;9.192;2023-03-03T05:42:03;2.20;99.90
7934;DHT22;4012;48.896;9.192;2023-03-03T05:44:29;2.10;99.90
7934;DHT22;4012;48.896;9.192;2023-03-03T05:46:55;2.10;99.90
7934;DHT22;4012;48.896;9.192;2023-03-03T05:49:22;2.10;99.90
7934;DHT22;4012;48.896;9.192;2023-03-03T05:51:47;2.10;99.90
7934;DHT22;4012;48.896;9.192;2023-03-03T05:54:13;2.20;99.90
7934;DHT22;4012;48.896;9.192;2023-03-03T05:56:39;2.30;99.90
7934;DHT22;4012;48.896;9.192;2023-03-03T05:59:04;2.30;99.90
7934;DHT22;4012;48.896;9.192;2023-03-03T06:01:30;2.30;99.90
7934;DHT22;4012;48.896;9.192;2023-03-03T06:03:55;2.30;99.90
7934;DHT22;4012;48.896;9.192;2023-03-03T06:06:21;2.30;99.90
7934;DHT22;4012;48.896;9.192;2023-03-03T06:08:46;2.40;99.90
7934;DHT22;4012;48.896;9.192;2023-03-03T06:11:12;2.30;99.90
7934;DHT22;4012;48.896;9.192;2023-03-03T06:13:38;2.40;99.90
7934;DHT22;4012;48.896;9.192;2023-03-03T06:16:05;2.40;99.90
7934;DHT22;4012;48.896;9.192;2023-03-03T06:18:31;2.40;99.90
7934;DHT22;4012;48.896;9.192;2023-03-03T06:20:56;2.30;99.90
7934;DHT22;4012;48.896;9.192;2023-03-03T06:23:22;2.20;99.90
7934;DHT22;4012;48.896;9.192;2023-03-03T06:25:48;2.20;99.90
7934;DHT22;4012;48.896;9.192;2023-03-03T06:28:14;2.20;99.90
7934;DHT22;4012;48.896;9.192;2023-03-03T06:30:39;2.20;99.90
7934;DHT22;4012;48.896;9.192;2023-03-03T06:33:05;2.30;99.90
7934;DHT22;4012;48.896;9.192;2023-03-03T06:35:31;2.20;99.90
7934;DHT22;4012;48.896;9.192;2023-03-03T06:37:56;2.20;99.90
7934;DHT22;4012;48.896;9.192;2023-03-03T06:40:22;2.20;99.90
7934;DHT22;4012;48.896;9.192;2023-03-03T06:42:47;2.10;99.90
7934;DHT22;4012;48.896;9.192;2023-03-03T06:45:13;2.20;99.90
7934;DHT22;4012;48.896;9.192;2023-03-03T06:47:39;2.30;99.90
7934;DHT22;4012;48.896;9.192;2023-03-03T06:50:06;2.30;99.90
7934;DHT22;4012;48.896;9.192;2023-03-03T06:52:33;2.30;99.90
7934;DHT22;4012;48.896;9.192;2023-03-03T06:55:01;2.30;99.90
7934;DHT22;4012;48.896;9.192;2023-03-03T06:57:34;2.30;99.90
7934;DHT22;4012;48.896;9.192;2023-03-03T07:02:34;2.30;99.90
7934;DHT22;4012;48.896;9.192;2023-03-03T07:05:00;2.30;99.90
7934;DHT22;4012;48.896;9.192;2023-03-03T07:07:26;2.30;99.90
7934;DHT22;4012;48.896;9.192;2023-03-03T07:09:55;2.30;99.90
7934;DHT22;4012;48.896;9.192;2023-03-03T07:12:25;2.30;99.90
7934;DHT22;4012;48.896;9.192;2023-03-03T07:14:54;2.30;99.90
7934;DHT22;4012;48.896;9.192;2023-03-03T07:17:24;2.40;99.90
7934;DHT22;4012;48.896;9.192;2023-03-03T07:19:50;2.50;99.90
7934;DHT22;4012;48.896;9.192;2023-03-03T07:22:20;2.50;99.90
7934;DHT22;4012;48.896;9.192;2023-03-03T07:24:51;2.70;99.90
7934;DHT22;4012;48.896;9.192;2023-03-03T07:27:23;2.80;99.90
7934;DHT22;4012;48.896;9.192;2023-03-03T07:29:52;2.90;99.90
7934;DHT22;4012;48.896;9.192;2023-03-03T07:34:48;3.10;99.90
7934;DHT22;4012;48.896;9.192;2023-03-03T07:37:34;3.30;99.90
7934;DHT22;4012;48.896;9.192;2023-03-03T07:40:38;3.40;99.90
7934;DHT22;4012;48.896;9.192;2023-03-03T07:48:48;3.30;99.90
7934;DHT22;4012;48.896;9.192;2023-03-03T07:51:22;3.50;99.90
7934;DHT22;4012;48.896;9.192;2023-03-03T07:53:50;3.60;99.90
7934;DHT22;4012;48.896;9.192;2023-03-03T07:56:34;3.80;99.90
7934;DHT22;4012;48.896;9.192;2023-03-03T07:59:08;3.90;99.90
7934;DHT22;4012;48.896;9.192;2023-03-03T08:01:43;4.10;99.90
7934;DHT22;4012;48.896;9.192;2023-03-03T08:04:40;4.50;99.90
7934;DHT22;4012;48.896;9.192;2023-03-03T08:07:17;4.50;99.90
7934;DHT22;4012;48.896;9.192;2023-03-03T08:10:26;5.20;99.90
7934;DHT22;4012;48.896;9.192;2023-03-03T08:12:54;6.60;99.90
7934;DHT22;4012;48.896;9.192;2023-03-03T08:15:24;6.50;99.90
7934;DHT22;4012;48.896;9.192;2023-03-03T08:17:54;7.30;99.90
7934;DHT22;4012;48.896;9.192;2023-03-03T08:22:58;7.90;99.90
7934;DHT22;4012;48.896;9.192;2023-03-03T08:25:23;8.50;99.90
7934;DHT22;4012;48.896;9.192;2023-03-03T08:27:49;9.20;99.90
7934;DHT22;4012;48.896;9.192;2023-03-03T08:30:14;9.30;99.90
7934;DHT22;4012;48.896;9.192;2023-03-03T08:32:40;9.30;99.90
7934;DHT22;4012;48.896;9.192;2023-03-03T08:35:06;9.50;99.90
7934;DHT22;4012;48.896;9.192;2023-03-03T08:37:31;10.80;99.90
7934;DHT22;4012;48.896;9.192;2023-03-03T08:39:57;11.10;99.90
7934;DHT22;4012;48.896;9.192;2023-03-03T08:42:23;12.00;99.90
7934;DHT22;4012;48.896;9.192;2023-03-03T08:44:48;12.00;99.90
7934;DHT22;4012;48.896;9.192;2023-03-03T08:47:14;11.20;99.90
7934;DHT22;4012;48.896;9.192;2023-03-03T08:49:39;11.20;99.90
7934;DHT22;4012;48.896;9.192;2023-03-03T08:52:05;10.50;99.90
7934;DHT22;4012;48.896;9.192;2023-03-03T08:54:31;10.60;99.90
7934;DHT22;4012;48.896;9.192;2023-03-03T08:56:56;10.50;99.90
7934;DHT22;4012;48.896;9.192;2023-03-03T08:59:22;9.30;99.90
7934;DHT22;4012;48.896;9.192;2023-03-03T09:01:47;7.90;99.90
7934;DHT22;4012;48.896;9.192;2023-03-03T09:04:13;8.10;99.90
7934;DHT22;4012;48.896;9.192;2023-03-03T09:06:38;9.00;99.90
7934;DHT22;4012;48.896;9.192;2023-03-03T09:09:04;9.00;99.90
7934;DHT22;4012;48.896;9.192;2023-03-03T09:11:30;8.40;99.90
7934;DHT22;4012;48.896;9.192;2023-03-03T09:14:15;8.80;99.90
7934;DHT22;4012;48.896;9.192;2023-03-03T09:16:49;9.30;99.90
7934;DHT22;4012;48.896;9.192;2023-03-03T09:19:28;9.50;99.90
7934;DHT22;4012;48.896;9.192;2023-03-03T09:21:58;9.00;99.90
7934;DHT22;4012;48.896;9.192;2023-03-03T09:24:30;9.50;99.90
7934;DHT22;4012;48.896;9.192;2023-03-03T09:26:57;8.70;99.90
7934;DHT22;4012;48.896;9.192;2023-03-03T09:29:30;8.10;99.90
7934;DHT22;4012;48.896;9.192;2023-03-03T09:34:50;7.50;99.90
7934;DHT22;4012;48.896;9.192;2023-03-03T09:37:20;7.40;99.90
7934;DHT22;4012;48.896;9.192;2023-03-03T09:39:52;7.20;99.90
7934;DHT22;4012;48.896;9.192;2023-03-03T09:42:36;7.30;99.90
7934;DHT22;4012;48.896;9.192;2023-03-03T09:45:25;8.30;99.90
7934;DHT22;4012;48.896;9.192;2023-03-03T09:53:56;12.10;99.90
7934;DHT22;4012;48.896;9.192;2023-03-03T09:56:36;9.70;99.90
7934;DHT22;4012;48.896;9.192;2023-03-03T09:59:28;8.10;99.90
7934;DHT22;4012;48.896;9.192;2023-03-03T10:02:05;7.90;99.90
7934;DHT22;4012;48.896;9.192;2023-03-03T10:04:57;7.30;99.90
7934;DHT22;4012;48.896;9.192;2023-03-03T10:16:09;7.90;99.90
7934;DHT22;4012;48.896;9.192;2023-03-03T10:19:16;7.50;99.90
7934;DHT22;4012;48.896;9.192;2023-03-03T10:22:19;8.70;99.90
7934;DHT22;4012;48.896;9.192;2023-03-03T10:28:01;8.60;99.90
7934;DHT22;4012;48.896;9.192;2023-03-03T10:38:43;10.70;99.90
7934;DHT22;4012;48.896;9.192;2023-03-03T10:52:15;10.50;99.90
7934;DHT22;4012;48.896;9.192;2023-03-03T11:00:28;10.50;99.90
7934;DHT22;4012;48.896;9.192;2023-03-03T11:06:04;10.50;99.90
7934;DHT22;4012;48.896;9.192;2023-03-03T11:08:48;10.30;99.90
7934;DHT22;4012;48.896;9.192;2023-03-03T11:14:02;9.10;99.90
7934;DHT22;4012;48.896;9.192;2023-03-03T11:23:04;9.00;99.90
7934;DHT22;4012;48.896;9.192;2023-03-03T11:26:03;9.30;99.90
7934;DHT22;4012;48.896;9.192;2023-03-03T11:31:43;9.60;99.90
7934;DHT22;4012;48.896;9.192;2023-03-03T11:34:36;9.50;99.90
7934;DHT22;4012;48.896;9.192;2023-03-03T11:37:10;9.60;99.90
7934;DHT22;4012;48.896;9.192;2023-03-03T11:39:38;9.40;99.90
7934;DHT22;4012;48.896;9.192;2023-03-03T11:44:54;9.80;99.90
7934;DHT22;4012;48.896;9.192;2023-03-03T11:47:41;9.60;99.90
7934;DHT22;4012;48.896;9.192;2023-03-03T11:50:21;9.40;99.90
7934;DHT22;4012;48.896;9.192;2023-03-03T11:58:18;9.60;99.90
7934;DHT22;4012;48.896;9.192;2023-03-03T12:09:18;9.80;99.90
7934;DHT22;4012;48.896;9.192;2023-03-03T12:12:05;9.80;99.90
7934;DHT22;4012;48.896;9.192;2023-03-03T12:17:57;9.60;99.90
7934;DHT22;4012;48.896;9.192;2023-03-03T12:28:31;9.80;99.90
7934;DHT22;4012;48.896;9.192;2023-03-03T12:31:15;9.90;99.90
7934;DHT22;4012;48.896;9.192;2023-03-03T12:44:49;9.80;99.90
7934;DHT22;4012;48.896;9.192;2023-03-03T12:47:28;10.00;99.90
7934;DHT22;4012;48.896;9.192;2023-03-03T12:58:05;9.80;99.90
7934;DHT22;4012;48.896;9.192;2023-03-03T13:06:32;10.00;99.90
7934;DHT22;4012;48.896;9.192;2023-03-03T13:09:18;10.00;99.90
7934;DHT22;4012;48.896;9.192;2023-03-03T13:14:51;10.10;99.90
7934;DHT22;4012;48.896;9.192;2023-03-03T13:17:22;10.10;99.90
7934;DHT22;4012;48.896;9.192;2023-03-03T13:19:58;10.10;99.90
7934;DHT22;4012;48.896;9.192;2023-03-03T13:22:58;10.00;99.90
7934;DHT22;4012;48.896;9.192;2023-03-03T13:25:49;9.80;99.90
7934;DHT22;4012;48.896;9.192;2023-03-03T13:31:17;9.70;99.90
7934;DHT22;4012;48.896;9.192;2023-03-03T13:33:46;9.80;99.90
7934;DHT22;4012;48.896;9.192;2023-03-03T13:36:16;9.80;99.90
7934;DHT22;4012;48.896;9.192;2023-03-03T13:38:52;9.50;99.90
7934;DHT22;4012;48.896;9.192;2023-03-03T13:41:23;9.60;99.90
7934;DHT22;4012;48.896;9.192;2023-03-03T13:44:03;9.80;99.90
7934;DHT22;4012;48.896;9.192;2023-03-03T13:49:38;9.70;99.90
7934;DHT22;4012;48.896;9.192;2023-03-03T13:52:07;9.80;99.90
7934;DHT22;4012;48.896;9.192;2023-03-03T13:57:37;9.20;99.90
7934;DHT22;4012;48.896;9.192;2023-03-03T14:06:02;9.50;99.90
7934;DHT22;4012;48.896;9.192;2023-03-03T14:13:48;9.90;99.90
7934;DHT22;4012;48.896;9.192;2023-03-03T14:19:34;9.70;99.90
7934;DHT22;4012;48.896;9.192;2023-03-03T14:25:10;9.70;99.90
7934;DHT22;4012;48.896;9.192;2023-03-03T14:33:15;9.90;99.90
7934;DHT22;4012;48.896;9.192;2023-03-03T14:35:49;9.80;99.90
7934;DHT22;4012;48.896;9.192;2023-03-03T14:38:17;10.00;99.90
7934;DHT22;4012;48.896;9.192;2023-03-03T14:40:45;10.00;99.90
7934;DHT22;4012;48.896;9.192;2023-03-03T14:43:23;9.90;99.90
7934;DHT22;4012;48.896;9.192;2023-03-03T14:45:51;9.90;99.90
7934;DHT22;4012;48.896;9.192;2023-03-03T14:48:23;9.90;99.90
7934;DHT22;4012;48.896;9.192;2023-03-03T14:51:14;9.80;99.90
7934;DHT22;4012;48.896;9.192;2023-03-03T14:53:47;9.70;99.90
7934;DHT22;4012;48.896;9.192;2023-03-03T14:56:27;9.70;99.90
7934;DHT22;4012;48.896;9.192;2023-03-03T14:59:15;9.60;99.90
7934;DHT22;4012;48.896;9.192;2023-03-03T15:01:41;9.60;99.90
7934;DHT22;4012;48.896;9.192;2023-03-03T15:04:30;9.70;99.90
7934;DHT22;4012;48.896;9.192;2023-03-03T15:06:56;9.60;99.90
7934;DHT22;4012;48.896;9.192;2023-03-03T15:09:39;9.70;99.90
7934;DHT22;4012;48.896;9.192;2023-03-03T15:17:35;9.60;99.90
7934;DHT22;4012;48.896;9.192;2023-03-03T15:22:55;9.60;99.90
7934;DHT22;4012;48.896;9.192;2023-03-03T15:33:46;9.70;99.90
7934;DHT22;4012;48.896;9.192;2023-03-03T15:39:17;9.60;99.90
7934;DHT22;4012;48.896;9.192;2023-03-03T15:44:21;9.50;99.90
7934;DHT22;4012;48.896;9.192;2023-03-03T15:47:21;9.50;99.90
7934;DHT22;4012;48.896;9.192;2023-03-03T15:50:14;9.40;99.90
7934;DHT22;4012;48.896;9.192;2023-03-03T16:00:32;9.20;99.90
7934;DHT22;4012;48.896;9.192;2023-03-03T16:03:10;9.30;99.90
7934;DHT22;4012;48.896;9.192;2023-03-03T16:08:44;9.20;99.90
7934;DHT22;4012;48.896;9.192;2023-03-03T16:28:05;9.00;99.90
7934;DHT22;4012;48.896;9.192;2023-03-03T16:33:56;9.00;99.90
7934;DHT22;4012;48.896;9.192;2023-03-03T16:36:42;8.90;99.90
7934;DHT22;4012;48.896;9.192;2023-03-03T16:41:59;8.80;99.90
7934;DHT22;4012;48.896;9.192;2023-03-03T16:47:37;8.70;99.90
7934;DHT22;4012;48.896;9.192;2023-03-03T16:53:00;8.60;99.90
7934;DHT22;4012;48.896;9.192;2023-03-03T16:55:52;8.60;99.90
7934;DHT22;4012;48.896;9.192;2023-03-03T17:07:30;8.60;99.90
7934;DHT22;4012;48.896;9.192;2023-03-03T17:10:13;8.50;99.90
7934;DHT22;4012;48.896;9.192;2023-03-03T17:21:02;8.20;99.90
7934;DHT22;4012;48.896;9.192;2023-03-03T17:27:01;8.10;99.90
7934;DHT22;4012;48.896;9.192;2023-03-03T17:29:49;8.10;99.90
7934;DHT22;4012;48.896;9.192;2023-03-03T17:32:47;8.10;99.90
7934;DHT22;4012;48.896;9.192;2023-03-03T17:43:22;7.80;99.90
7934;DHT22;4012;48.896;9.192;2023-03-03T17:45:50;7.70;99.90
7934;DHT22;4012;48.896;9.192;2023-03-03T17:58:57;7.70;99.90
7934;DHT22;4012;48.896;9.192;2023-03-03T18:21:32;7.50;99.90
7934;DHT22;4012;48.896;9.192;2023-03-03T18:26:50;7.50;99.90
7934;DHT22;4012;48.896;9.192;2023-03-03T18:29:25;7.30;99.90
7934;DHT22;4012;48.896;9.192;2023-03-03T18:36:57;7.30;99.90
7934;DHT22;4012;48.896;9.192;2023-03-03T18:39:47;7.20;99.90
7934;DHT22;4012;48.896;9.192;2023-03-03T18:44:50;7.10;99.90
7934;DHT22;4012;48.896;9.192;2023-03-03T18:47:16;7.00;99.90
7934;DHT22;4012;48.896;9.192;2023-03-03T18:49:49;6.90;99.90
7934;DHT22;4012;48.896;9.192;2023-03-03T18:52:30;6.90;99.90
7934;DHT22;4012;48.896;9.192;2023-03-03T18:57:37;6.80;99.90
7934;DHT22;4012;48.896;9.192;2023-03-03T19:00:23;6.70;99.90
7934;DHT22;4012;48.896;9.192;2023-03-03T19:02:57;6.70;99.90
7934;DHT22;4012;48.896;9.192;2023-03-03T19:05:48;6.70;99.90
7934;DHT22;4012;48.896;9.192;2023-03-03T19:11:01;6.60;99.90
7934;DHT22;4012;48.896;9.192;2023-03-03T19:16:06;6.50;99.90
7934;DHT22;4012;48.896;9.192;2023-03-03T19:18:56;6.40;99.90
7934;DHT22;4012;48.896;9.192;2023-03-03T19:34:59;6.20;99.90
7934;DHT22;4012;48.896;9.192;2023-03-03T19:37:44;6.20;99.90
7934;DHT22;4012;48.896;9.192;2023-03-03T19:40:45;6.20;99.90
7934;DHT22;4012;48.896;9.192;2023-03-03T19:52:02;6.00;99.90
7934;DHT22;4012;48.896;9.192;2023-03-03T20:00:54;5.90;99.90
7934;DHT22;4012;48.896;9.192;2023-03-03T20:05:55;5.80;99.90
7934;DHT22;4012;48.896;9.192;2023-03-03T20:11:50;5.80;99.90
7934;DHT22;4012;48.896;9.192;2023-03-03T20:16:52;5.70;99.90
7934;DHT22;4012;48.896;9.192;2023-03-03T20:28:39;5.60;99.90
7934;DHT22;4012;48.896;9.192;2023-03-03T20:31:20;5.60;99.90
7934;DHT22;4012;48.896;9.192;2023-03-03T20:47:08;5.50;99.90
7934;DHT22;4012;48.896;9.192;2023-03-03T20:50:10;5.40;99.90
7934;DHT22;4012;48.896;9.192;2023-03-03T20:56:22;5.40;99.90
7934;DHT22;4012;48.896;9.192;2023-03-03T21:01:19;5.30;99.90
7934;DHT22;4012;48.896;9.192;2023-03-03T21:03:48;5.30;99.90
7934;DHT22;4012;48.896;9.192;2023-03-03T21:06:18;5.30;99.90
7934;DHT22;4012;48.896;9.192;2023-03-03T21:08:53;5.20;99.90
7934;DHT22;4012;48.896;9.192;2023-03-03T21:13:51;5.20;99.90
7934;DHT22;4012;48.896;9.192;2023-03-03T21:19:31;5.10;99.90
7934;DHT22;4012;48.896;9.192;2023-03-03T21:21:59;5.00;99.90
7934;DHT22;4012;48.896;9.192;2023-03-03T21:27:32;5.00;99.90
7934;DHT22;4012;48.896;9.192;2023-03-03T21:32:41;5.00;99.90
7934;DHT22;4012;48.896;9.192;2023-03-03T21:35:18;4.90;99.90
7934;DHT22;4012;48.896;9.192;2023-03-03T21:37:49;4.90;99.90
7934;DHT22;4012;48.896;9.192;2023-03-03T21:42:41;4.90;99.90
7934;DHT22;4012;48.896;9.192;2023-03-03T21:45:10;4.90;99.90
7934;DHT22;4012;48.896;9.192;2023-03-03T21:47:36;4.90;99.90
7934;DHT22;4012;48.896;9.192;2023-03-03T21:50:02;4.80;99.90
7934;DHT22;4012;48.896;9.192;2023-03-03T21:52:28;4.80;99.90
7934;DHT22;4012;48.896;9.192;2023-03-03T21:54:54;4.80;99.90
7934;DHT22;4012;48.896;9.192;2023-03-03T21:57:19;4.80;99.90
7934;DHT22;4012;48.896;9.192;2023-03-03T21:59:45;4.80;99.90
7934;DHT22;4012;48.896;9.192;2023-03-03T22:02:11;4.80;99.90
7934;DHT22;4012;48.896;9.192;2023-03-03T22:04:37;4.70;99.90
7934;DHT22;4012;48.896;9.192;2023-03-03T22:07:07;4.70;99.90
7934;DHT22;4012;48.896;9.192;2023-03-03T22:09:33;4.70;99.90
7934;DHT22;4012;48.896;9.192;2023-03-03T22:11:59;4.60;99.90
7934;DHT22;4012;48.896;9.192;2023-03-03T22:14:25;4.60;99.90
7934;DHT22;4012;48.896;9.192;2023-03-03T22:16:50;4.60;99.90
7934;DHT22;4012;48.896;9.192;2023-03-03T22:19:16;4.60;99.90
7934;DHT22;4012;48.896;9.192;2023-03-03T22:21:41;4.60;99.90
7934;DHT22;4012;48.896;9.192;2023-03-03T22:24:08;4.60;99.90
7934;DHT22;4012;48.896;9.192;2023-03-03T22:26:34;4.60;99.90
7934;DHT22;4012;48.896;9.192;2023-03-03T22:29:00;4.60;99.90
7934;DHT22;4012;48.896;9.192;2023-03-03T22:31:26;4.60;99.90
7934;DHT22;4012;48.896;9.192;2023-03-03T22:33:51;4.60;99.90
7934;DHT22;4012;48.896;9.192;2023-03-03T22:36:17;4.60;99.90
7934;DHT22;4012;48.896;9.192;2023-03-03T22:38:43;4.60;99.90
7934;DHT22;4012;48.896;9.192;2023-03-03T22:41:09;4.50;99.90
7934;DHT22;4012;48.896;9.192;2023-03-03T22:43:35;4.50;99.90
7934;DHT22;4012;48.896;9.192;2023-03-03T22:46:00;4.40;99.90
7934;DHT22;4012;48.896;9.192;2023-03-03T22:48:27;4.40;99.90
7934;DHT22;4012;48.896;9.192;2023-03-03T22:50:53;4.30;99.90
7934;DHT22;4012;48.896;9.192;2023-03-03T22:53:19;4.20;99.90
7934;DHT22;4012;48.896;9.192;2023-03-03T22:55:46;4.20;99.90
7934;DHT22;4012;48.896;9.192;2023-03-03T22:58:12;4.10;99.90
7934;DHT22;4012;48.896;9.192;2023-03-03T23:00:39;4.00;99.90
7934;DHT22;4012;48.896;9.192;2023-03-03T23:03:09;4.10;99.90
7934;DHT22;4012;48.896;9.192;2023-03-03T23:05:35;4.00;99.90
7934;DHT22;4012;48.896;9.192;2023-03-03T23:08:07;4.00;99.90
7934;DHT22;4012;48.896;9.192;2023-03-03T23:10:33;4.00;99.90
7934;DHT22;4012;48.896;9.192;2023-03-03T23:12:59;4.00;99.90
7934;DHT22;4012;48.896;9.192;2023-03-03T23:15:24;3.90;99.90
7934;DHT22;4012;48.896;9.192;2023-03-03T23:17:53;3.90;99.90
7934;DHT22;4012;48.896;9.192;2023-03-03T23:20:22;3.90;99.90
7934;DHT22;4012;48.896;9.192;2023-03-03T23:22:48;3.90;99.90